Time;durP1;ratioP1;P1;durP2;ratioP2;P2;SDS_P1;SDS_P2;PMS_P1;PMS_P2;Temp;Humidity;BMP_temperature;BMP_pressure;BME280_temperature;BME280_humidity;BME280_pressure;Samples;Min_cycle;Max_cycle;Signal;HPM_P1;HPM_P2
2022/09/05 00:02:29;;;;;;;0.80;0.60;;;16.80;99.90;;;;;;5052726;28;20463;-76
2022/09/05 00:05:03;;;;;;;0.50;0.50;;;16.70;99.90;;;;;;5052762;28;20464;-76
2022/09/05 00:07:39;;;;;;;0.40;0.40;;;16.70;99.90;;;;;;5052373;28;20476;-76
2022/09/05 00:10:18;;;;;;;1.07;0.57;;;16.70;99.90;;;;;;5052438;28;20905;-76
2022/09/05 00:12:46;;;;;;;0.80;0.63;;;16.70;99.90;;;;;;5052384;28;20465;-76
2022/09/05 00:15:22;;;;;;;0.60;0.50;;;16.70;99.90;;;;;;5052663;28;20579;-76
2022/09/05 00:18:03;;;;;;;0.83;0.53;;;16.70;99.90;;;;;;5054347;28;20426;-76
2022/09/05 00:20:42;;;;;;;0.70;0.40;;;16.60;99.90;;;;;;5056250;28;20430;-76
2022/09/05 00:23:14;;;;;;;1.03;0.70;;;16.60;99.90;;;;;;5056126;28;20470;-76
2022/09/05 00:25:59;;;;;;;0.90;0.50;;;16.60;99.90;;;;;;5055870;28;20441;-77
2022/09/05 00:28:39;;;;;;;0.67;0.67;;;16.60;99.90;;;;;;5055987;28;20465;-76
2022/09/05 00:31:24;;;;;;;0.57;0.57;;;16.60;99.90;;;;;;5056031;28;20438;-76
2022/09/05 00:34:03;;;;;;;0.70;0.50;;;16.60;99.90;;;;;;5055580;28;20469;-76
2022/09/05 00:36:38;;;;;;;0.53;0.53;;;16.60;99.90;;;;;;5055951;28;20429;-76
2022/09/05 00:39:11;;;;;;;0.60;0.60;;;16.70;99.90;;;;;;5055565;28;20920;-76
2022/09/05 00:41:40;;;;;;;2.00;0.60;;;16.60;99.90;;;;;;5055749;28;20437;-76
2022/09/05 00:44:07;;;;;;;1.77;0.83;;;16.60;99.90;;;;;;5056563;28;20499;-76
2022/09/05 00:46:37;;;;;;;0.50;0.40;;;16.60;99.90;;;;;;5055650;28;20445;-76
2022/09/05 00:49:17;;;;;;;1.53;0.70;;;16.60;99.90;;;;;;5055517;28;20460;-76
2022/09/05 00:51:54;;;;;;;0.63;0.60;;;16.60;99.90;;;;;;5055619;28;20789;-76
2022/09/05 00:54:56;;;;;;;0.50;0.40;;;16.60;99.90;;;;;;5055883;28;20436;-76
2022/09/05 00:57:46;;;;;;;0.53;0.53;;;16.50;99.90;;;;;;5055262;28;20943;-76
2022/09/05 01:00:17;;;;;;;1.00;0.90;;;16.50;99.90;;;;;;5055221;28;20426;-76
2022/09/05 01:03:11;;;;;;;1.50;0.63;;;16.50;99.90;;;;;;5055392;28;20462;-76
2022/09/05 01:05:54;;;;;;;0.40;0.40;;;16.50;99.90;;;;;;5055435;28;20426;-76
2022/09/05 01:08:52;;;;;;;0.70;0.43;;;16.50;99.90;;;;;;5055315;28;20473;-76
2022/09/05 01:11:34;;;;;;;1.13;0.47;;;16.40;99.90;;;;;;5055009;28;20434;-76
2022/09/05 01:14:14;;;;;;;0.60;0.60;;;16.40;99.90;;;;;;5055283;28;20488;-76
2022/09/05 01:17:03;;;;;;;0.50;0.40;;;16.40;99.90;;;;;;5055206;28;20429;-76
2022/09/05 01:19:43;;;;;;;1.03;0.93;;;16.30;99.90;;;;;;5054854;28;20438;-76
2022/09/05 01:22:39;;;;;;;1.60;0.97;;;16.30;99.90;;;;;;5054999;28;20469;-76
2022/09/05 01:25:19;;;;;;;0.40;0.40;;;16.30;99.90;;;;;;5054959;28;20450;-76
2022/09/05 01:27:54;;;;;;;0.50;0.50;;;16.30;99.90;;;;;;5054434;28;20500;-76
2022/09/05 01:30:26;;;;;;;0.70;0.47;;;16.30;99.90;;;;;;5053832;28;20429;-76
2022/09/05 01:33:04;;;;;;;1.23;0.63;;;16.20;99.90;;;;;;5054817;28;20466;-76
2022/09/05 01:35:49;;;;;;;0.30;0.30;;;16.20;99.90;;;;;;5054593;28;20441;-76
2022/09/05 01:38:24;;;;;;;1.03;0.50;;;16.20;99.90;;;;;;5054409;28;20441;-76
2022/09/05 01:40:58;;;;;;;0.97;0.80;;;16.20;99.90;;;;;;5054719;28;20436;-76
2022/09/05 01:43:45;;;;;;;5.60;0.50;;;16.20;99.90;;;;;;5054612;28;20477;-76
2022/09/05 01:46:24;;;;;;;0.40;0.37;;;16.20;99.90;;;;;;5054611;28;20434;-76
2022/09/05 01:48:57;;;;;;;1.57;0.40;;;16.20;99.90;;;;;;5054176;28;21003;-76
2022/09/05 01:51:32;;;;;;;0.60;0.60;;;16.20;99.90;;;;;;5054522;28;20508;-76
2022/09/05 01:54:19;;;;;;;0.50;0.40;;;16.20;99.90;;;;;;5054173;28;20433;-76
2022/09/05 01:56:56;;;;;;;0.60;0.40;;;16.20;99.90;;;;;;5054434;28;20426;-76
2022/09/05 01:59:36;;;;;;;1.27;0.50;;;16.20;99.90;;;;;;5054352;28;20426;-76
2022/09/05 02:02:18;;;;;;;0.70;0.50;;;16.20;99.90;;;;;;5054244;28;20477;-76
2022/09/05 02:05:13;;;;;;;0.53;0.50;;;16.20;99.90;;;;;;5054290;28;20434;-76
2022/09/05 02:08:13;;;;;;;0.50;0.50;;;16.20;99.90;;;;;;5054113;28;20482;-76
2022/09/05 02:10:51;;;;;;;1.77;0.80;;;16.10;99.90;;;;;;5020876;28;20446;-76
2022/09/05 02:13:27;;;;;;;0.50;0.50;;;16.10;99.90;;;;;;5054064;28;20514;-76
2022/09/05 02:16:03;;;;;;;0.70;0.53;;;16.10;99.90;;;;;;5054063;28;20774;-76
2022/09/05 02:18:47;;;;;;;0.50;0.40;;;16.10;99.90;;;;;;5054037;28;20426;-76
2022/09/05 02:21:23;;;;;;;0.60;0.60;;;16.10;99.90;;;;;;5054423;28;20453;-76
2022/09/05 02:24:02;;;;;;;0.50;0.50;;;16.10;99.90;;;;;;5053801;28;20469;-76
2022/09/05 02:26:35;;;;;;;0.47;0.47;;;16.10;99.90;;;;;;5053582;28;20484;-76
2022/09/05 02:29:11;;;;;;;0.63;0.50;;;16.10;99.90;;;;;;5053437;28;20980;-76
2022/09/05 02:31:46;;;;;;;0.50;0.50;;;16.10;99.90;;;;;;5053739;28;20425;-76
2022/09/05 02:34:19;;;;;;;0.70;0.50;;;16.10;99.90;;;;;;5053461;28;20905;-76
2022/09/05 02:36:51;;;;;;;0.43;0.40;;;16.10;99.90;;;;;;5053495;28;20406;-76
2022/09/05 02:39:26;;;;;;;0.43;0.40;;;16.10;99.90;;;;;;5053650;28;20913;-76
2022/09/05 02:41:59;;;;;;;0.50;0.40;;;16.10;99.90;;;;;;5053240;28;20832;-76
2022/09/05 02:44:32;;;;;;;1.00;0.40;;;16.10;99.90;;;;;;5053275;28;20434;-76
2022/09/05 02:47:08;;;;;;;0.70;0.40;;;16.10;99.90;;;;;;5053546;28;20434;-76
2022/09/05 02:49:45;;;;;;;0.90;0.60;;;16.00;99.90;;;;;;5053246;28;20426;-76
2022/09/05 02:52:15;;;;;;;0.40;0.40;;;16.00;99.90;;;;;;5053471;28;20468;-76
2022/09/05 02:54:46;;;;;;;0.40;0.30;;;15.90;99.90;;;;;;5053500;28;20441;-76
2022/09/05 02:57:28;;;;;;;0.70;0.50;;;15.90;99.90;;;;;;5053472;28;20438;-76
2022/09/05 03:00:05;;;;;;;0.70;0.40;;;15.90;99.90;;;;;;5053452;28;20434;-76
2022/09/05 03:02:47;;;;;;;2.03;0.70;;;15.80;99.90;;;;;;5053310;28;20553;-76
2022/09/05 03:05:20;;;;;;;0.60;0.40;;;15.80;99.90;;;;;;5053055;28;20433;-76
2022/09/05 03:08:13;;;;;;;0.77;0.77;;;15.70;99.90;;;;;;5053224;28;20473;-76
2022/09/05 03:11:05;;;;;;;0.60;0.40;;;15.80;99.90;;;;;;5053326;28;20430;-76
2022/09/05 03:14:07;;;;;;;0.77;0.60;;;15.70;99.90;;;;;;5053213;28;20557;-76
2022/09/05 03:17:01;;;;;;;0.50;0.50;;;15.70;99.90;;;;;;5052868;28;20813;-76
2022/09/05 03:20:06;;;;;;;1.10;0.87;;;15.60;99.90;;;;;;5053204;28;20437;-76
2022/09/05 03:23:01;;;;;;;0.40;0.40;;;15.60;99.90;;;;;;5052763;28;20476;-76
2022/09/05 03:25:57;;;;;;;0.50;0.47;;;15.60;99.90;;;;;;5053136;28;20434;-76
2022/09/05 03:29:07;;;;;;;0.50;0.43;;;15.70;99.90;;;;;;5053048;28;20498;-76
2022/09/05 03:32:01;;;;;;;0.60;0.50;;;15.60;99.90;;;;;;5052671;28;20941;-76
2022/09/05 03:35:01;;;;;;;0.40;0.40;;;15.60;99.90;;;;;;5039998;28;20937;-76
2022/09/05 03:37:55;;;;;;;0.97;0.50;;;15.70;99.90;;;;;;5052738;28;20909;-76
2022/09/05 03:40:48;;;;;;;1.00;0.50;;;15.60;99.90;;;;;;5050858;28;20817;-76
2022/09/05 03:43:41;;;;;;;0.53;0.53;;;15.60;99.90;;;;;;5052924;28;20469;-76
2022/09/05 03:46:30;;;;;;;0.80;0.50;;;15.60;99.90;;;;;;5052933;28;20517;-76
2022/09/05 03:49:31;;;;;;;0.57;0.57;;;15.60;99.90;;;;;;5052545;28;20960;-76
2022/09/05 03:52:13;;;;;;;0.40;0.40;;;15.60;99.90;;;;;;5052901;28;20470;-76
2022/09/05 03:55:17;;;;;;;1.03;0.50;;;15.50;99.90;;;;;;5056391;28;20438;-76
2022/09/05 03:58:12;;;;;;;0.60;0.50;;;15.50;99.90;;;;;;5025974;28;20448;-76
2022/09/05 04:00:43;;;;;;;0.40;0.40;;;15.50;99.90;;;;;;5056581;28;20449;-76
2022/09/05 04:03:19;;;;;;;0.70;0.40;;;15.60;99.90;;;;;;5056491;28;20479;-76
2022/09/05 04:05:52;;;;;;;0.87;0.50;;;15.60;99.90;;;;;;5057208;28;20449;-76
2022/09/05 04:08:25;;;;;;;0.40;0.40;;;15.60;99.90;;;;;;5056441;28;20470;-76
2022/09/05 04:10:56;;;;;;;1.33;0.67;;;15.60;99.90;;;;;;5056431;28;20452;-76
2022/09/05 04:13:28;;;;;;;1.40;0.73;;;15.60;99.90;;;;;;5056036;28;20991;-76
2022/09/05 04:16:09;;;;;;;1.03;0.93;;;15.50;99.90;;;;;;5056371;28;20453;-76
2022/09/05 04:18:40;;;;;;;0.90;0.53;;;15.50;99.90;;;;;;5056274;28;20429;-76
2022/09/05 04:21:13;;;;;;;0.40;0.40;;;15.50;99.90;;;;;;5055959;28;20914;-76
2022/09/05 04:23:52;;;;;;;0.50;0.50;;;15.50;99.90;;;;;;5056111;28;20478;-76
2022/09/05 04:26:44;;;;;;;0.50;0.50;;;15.50;99.90;;;;;;5055843;28;20483;-76
2022/09/05 04:29:19;;;;;;;0.60;0.60;;;15.50;99.90;;;;;;5055788;28;20458;-76
2022/09/05 04:31:57;;;;;;;0.40;0.40;;;15.40;99.90;;;;;;5055985;28;20429;-76
2022/09/05 04:34:42;;;;;;;0.77;0.53;;;15.40;99.90;;;;;;5056049;28;20779;-76
2022/09/05 04:37:11;;;;;;;0.87;0.80;;;15.40;99.90;;;;;;5055942;28;20438;-76
2022/09/05 04:39:39;;;;;;;0.70;0.60;;;15.40;99.90;;;;;;5055816;28;20450;-76
2022/09/05 04:42:20;;;;;;;0.63;0.63;;;15.40;99.90;;;;;;5055747;28;20466;-76
2022/09/05 04:44:51;;;;;;;0.50;0.50;;;15.40;99.90;;;;;;5055809;28;20441;-76
2022/09/05 04:47:23;;;;;;;0.60;0.60;;;15.40;99.90;;;;;;5055764;28;20426;-76
2022/09/05 04:49:57;;;;;;;13.33;0.43;;;15.40;99.90;;;;;;5055329;28;21011;-76
2022/09/05 04:53:03;;;;;;;3.60;0.80;;;15.50;99.90;;;;;;5055598;28;20469;-76
2022/09/05 04:55:38;;;;;;;0.50;0.50;;;15.50;99.90;;;;;;5055584;28;20441;-76
2022/09/05 04:58:10;;;;;;;0.70;0.50;;;15.50;99.90;;;;;;5055568;28;20436;-76
2022/09/05 05:00:42;;;;;;;1.40;1.30;;;15.50;99.90;;;;;;5055489;28;20430;-76
2022/09/05 05:03:13;;;;;;;0.50;0.50;;;15.50;99.90;;;;;;5054957;28;20543;-76
2022/09/05 05:05:55;;;;;;;1.50;0.70;;;15.50;99.90;;;;;;5054813;28;20436;-76
2022/09/05 05:08:27;;;;;;;0.70;0.43;;;15.50;99.90;;;;;;5055330;28;20469;-76
2022/09/05 05:10:58;;;;;;;0.40;0.40;;;15.60;99.90;;;;;;5055314;28;20438;-76
2022/09/05 05:13:29;;;;;;;0.53;0.40;;;15.60;99.90;;;;;;5054888;28;20474;-76
2022/09/05 05:16:00;;;;;;;0.60;0.30;;;15.60;99.90;;;;;;5055250;28;20492;-76
2022/09/05 05:18:32;;;;;;;0.80;0.60;;;15.60;99.90;;;;;;5055186;28;20430;-76
2022/09/05 05:21:03;;;;;;;0.63;0.63;;;15.60;99.90;;;;;;5055129;28;20437;-76
2022/09/05 05:23:35;;;;;;;0.60;0.53;;;15.60;99.90;;;;;;5054975;28;20462;-76
2022/09/05 05:26:07;;;;;;;1.13;1.07;;;15.70;99.90;;;;;;5054896;28;20488;-76
2022/09/05 05:28:47;;;;;;;0.93;0.50;;;15.70;99.90;;;;;;5054580;28;20469;-76
2022/09/05 05:31:18;;;;;;;1.23;0.90;;;15.70;99.90;;;;;;5054679;28;20426;-76
2022/09/05 05:33:48;;;;;;;0.57;0.43;;;15.70;99.90;;;;;;5054526;28;20981;-76
2022/09/05 05:36:20;;;;;;;0.80;0.60;;;15.80;99.90;;;;;;5055640;28;20430;-76
2022/09/05 05:38:52;;;;;;;0.77;0.40;;;15.80;99.90;;;;;;5054735;28;20434;-76
2022/09/05 05:41:25;;;;;;;1.33;0.50;;;15.80;99.90;;;;;;5054750;28;20442;-76
2022/09/05 05:43:52;;;;;;;2.63;1.00;;;15.90;99.90;;;;;;5054554;28;20470;-76
2022/09/05 05:46:37;;;;;;;1.17;0.60;;;15.90;99.90;;;;;;5054265;28;21020;-76
2022/09/05 05:49:23;;;;;;;0.50;0.40;;;16.00;99.90;;;;;;5054506;28;20478;-76
2022/09/05 05:52:04;;;;;;;0.60;0.60;;;16.00;99.90;;;;;;5054424;28;20470;-76
2022/09/05 05:54:41;;;;;;;0.40;0.40;;;16.10;99.90;;;;;;5054471;28;20434;-75
2022/09/05 05:57:25;;;;;;;1.47;1.20;;;16.10;99.90;;;;;;5054490;28;20445;-76
2022/09/05 06:00:01;;;;;;;1.17;0.90;;;16.20;99.90;;;;;;5054393;28;20446;-76
2022/09/05 06:03:01;;;;;;;1.43;0.80;;;16.30;99.90;;;;;;5054235;28;20476;-76
2022/09/05 06:05:42;;;;;;;0.70;0.70;;;16.30;99.90;;;;;;5030089;28;20480;-76
2022/09/05 06:08:31;;;;;;;0.70;0.57;;;16.30;99.90;;;;;;5054133;28;20437;-76
2022/09/05 06:11:40;;;;;;;0.50;0.50;;;16.40;99.90;;;;;;5054138;28;20450;-76
2022/09/05 06:14:39;;;;;;;1.27;0.60;;;16.40;99.90;;;;;;5037320;28;20465;-76
2022/09/05 06:17:31;;;;;;;2.37;0.60;;;16.50;99.90;;;;;;5054005;28;20430;-75
2022/09/05 06:20:38;;;;;;;0.60;0.60;;;16.50;99.90;;;;;;5054004;28;20426;-76
2022/09/05 06:23:38;;;;;;;1.23;0.87;;;16.60;99.90;;;;;;5053901;28;20476;-76
2022/09/05 06:26:16;;;;;;;1.00;0.80;;;16.80;99.90;;;;;;5053415;28;20988;-76
2022/09/05 06:28:59;;;;;;;1.50;0.50;;;17.00;99.90;;;;;;5053839;28;20503;-76
2022/09/05 06:31:58;;;;;;;3.43;0.90;;;17.20;99.90;;;;;;5053806;28;20434;-77
2022/09/05 06:34:39;;;;;;;0.50;0.50;;;17.30;99.90;;;;;;5053792;28;20430;-77
2022/09/05 06:37:15;;;;;;;1.10;0.70;;;17.50;99.90;;;;;;5053793;28;20426;-77
2022/09/05 06:40:00;;;;;;;1.13;0.73;;;17.60;99.90;;;;;;5053651;28;20433;-77
2022/09/05 06:42:35;;;;;;;0.53;0.50;;;17.70;99.90;;;;;;5054258;28;20981;-77
2022/09/05 06:45:17;;;;;;;0.53;0.53;;;17.80;99.90;;;;;;5053657;28;20426;-76
2022/09/05 06:47:47;;;;;;;0.70;0.53;;;17.80;99.90;;;;;;5053325;28;20417;-77
2022/09/05 06:50:18;;;;;;;0.90;0.70;;;17.80;99.90;;;;;;5053133;28;20481;-77
2022/09/05 06:53:24;;;;;;;0.50;0.50;;;17.80;99.90;;;;;;5053444;28;20564;-77
2022/09/05 06:56:02;;;;;;;0.60;0.57;;;17.90;99.90;;;;;;5038071;28;20968;-77
2022/09/05 06:59:03;;;;;;;0.73;0.67;;;18.10;99.90;;;;;;5053442;28;20437;-77
2022/09/05 07:01:33;;;;;;;1.80;1.07;;;18.30;99.90;;;;;;5052940;28;20917;-78
2022/09/05 07:04:13;;;;;;;0.63;0.50;;;18.40;99.90;;;;;;5053280;28;20509;-77
2022/09/05 07:06:53;;;;;;;0.60;0.60;;;18.50;99.90;;;;;;5053543;28;20410;-77
2022/09/05 07:09:25;;;;;;;1.20;0.70;;;18.60;99.90;;;;;;5052882;28;20462;-78
2022/09/05 07:12:05;;;;;;;1.70;0.70;;;18.80;99.90;;;;;;5053247;28;20473;-77
2022/09/05 07:14:39;;;;;;;0.50;0.50;;;18.90;99.90;;;;;;5052935;28;20806;-78
2022/09/05 07:17:12;;;;;;;1.23;1.00;;;19.10;99.90;;;;;;5052956;28;20445;-79
2022/09/05 07:19:50;;;;;;;1.50;0.70;;;19.20;99.90;;;;;;5053244;28;20437;-79
2022/09/05 07:22:31;;;;;;;1.13;1.03;;;19.40;99.90;;;;;;5052772;28;20496;-79
2022/09/05 07:25:02;;;;;;;0.80;0.67;;;19.40;99.90;;;;;;5052827;28;20444;-79
2022/09/05 07:27:35;;;;;;;0.80;0.70;;;19.50;99.90;;;;;;5054040;28;20484;-79
2022/09/05 07:30:04;;;;;;;0.90;0.77;;;19.60;99.90;;;;;;5057153;28;20556;-79
2022/09/05 07:32:34;;;;;;;0.70;0.70;;;19.70;99.90;;;;;;5056711;28;20477;-78
2022/09/05 07:35:03;;;;;;;0.50;0.50;;;19.80;99.90;;;;;;5058225;28;20445;-78
2022/09/05 07:37:37;;;;;;;1.10;0.80;;;19.90;99.90;;;;;;5057025;28;20445;-78
2022/09/05 07:40:09;;;;;;;0.50;0.50;;;20.00;99.90;;;;;;5057015;28;20438;-78
2022/09/05 07:42:41;;;;;;;0.80;0.80;;;20.10;99.90;;;;;;5056636;28;20544;-78
2022/09/05 07:45:12;;;;;;;1.43;1.07;;;20.20;99.90;;;;;;5056616;28;20452;-78
2022/09/05 07:47:43;;;;;;;0.70;0.60;;;20.30;99.90;;;;;;5056936;28;20792;-80
2022/09/05 07:50:12;;;;;;;1.10;0.63;;;20.40;99.90;;;;;;5056751;28;20473;-77
2022/09/05 07:52:43;;;;;;;0.60;0.50;;;20.50;99.90;;;;;;5056482;28;20465;-87
2022/09/05 07:55:24;;;;;;;1.33;1.00;;;20.70;99.90;;;;;;5057498;28;20453;-88
2022/09/05 07:57:54;;;;;;;1.13;1.03;;;20.80;99.90;;;;;;5056880;28;20498;-88
2022/09/05 08:00:23;;;;;;;0.60;0.60;;;20.90;99.90;;;;;;5058024;28;20441;-88
2022/09/05 08:02:50;;;;;;;0.70;0.70;;;21.00;99.90;;;;;;5056882;28;20523;-88
2022/09/05 08:05:21;;;;;;;2.00;0.77;;;21.10;99.90;;;;;;5056842;28;20441;-88
2022/09/05 08:07:51;;;;;;;0.60;0.60;;;21.30;99.90;;;;;;5056785;28;20429;-87
2022/09/05 08:10:23;;;;;;;1.03;0.70;;;21.40;99.90;;;;;;5056508;28;20484;-88
2022/09/05 08:12:55;;;;;;;0.70;0.63;;;21.50;99.90;;;;;;5056641;28;20472;-88
2022/09/05 08:15:27;;;;;;;1.70;0.90;;;21.70;99.90;;;;;;5057319;28;20430;-88
2022/09/05 08:18:05;;;;;;;0.57;0.57;;;21.80;99.90;;;;;;5057107;28;20429;-87
2022/09/05 08:20:42;;;;;;;2.70;1.10;;;21.80;99.90;;;;;;5056706;28;20425;-87
2022/09/05 08:23:18;;;;;;;0.77;0.60;;;21.80;99.90;;;;;;5056701;28;20461;-87
2022/09/05 08:25:57;;;;;;;0.67;0.67;;;22.00;99.90;;;;;;5057170;28;20456;-86
2022/09/05 08:28:31;;;;;;;2.30;0.60;;;22.10;99.90;;;;;;5056917;28;20797;-87
2022/09/05 08:31:05;;;;;;;1.00;0.70;;;22.30;99.90;;;;;;5057969;28;20511;-85
2022/09/05 08:33:34;;;;;;;1.20;0.70;;;22.40;99.90;;;;;;5058788;28;20464;-86
2022/09/05 08:36:09;;;;;;;0.63;0.60;;;22.50;99.90;;;;;;5057579;28;20434;-87
2022/09/05 08:38:41;;;;;;;0.60;0.60;;;22.70;99.90;;;;;;5056076;28;20440;-87
2022/09/05 08:41:15;;;;;;;0.60;0.60;;;22.80;99.90;;;;;;5056308;28;20536;-88
2022/09/05 08:43:52;;;;;;;0.70;0.70;;;22.90;99.90;;;;;;5056272;28;20476;-88
2022/09/05 08:46:26;;;;;;;0.90;0.90;;;23.00;99.90;;;;;;5055947;28;20190;-87
2022/09/05 08:49:13;;;;;;;1.10;0.70;;;23.10;99.90;;;;;;5056046;28;20430;-86
2022/09/05 08:51:46;;;;;;;0.73;0.60;;;23.40;99.90;;;;;;5056024;28;20203;-87
2022/09/05 08:54:21;;;;;;;0.50;0.50;;;23.60;99.90;;;;;;5055904;28;20191;-87
2022/09/05 08:57:00;;;;;;;1.55;0.90;;;23.70;99.90;;;;;;5055768;28;20646;-87
2022/09/05 08:59:43;;;;;;;1.30;0.77;;;24.00;99.90;;;;;;5056155;28;20194;-86
2022/09/05 09:02:47;;;;;;;0.95;0.95;;;24.30;99.90;;;;;;5055800;28;20222;-86
2022/09/05 09:05:23;;;;;;;0.57;0.57;;;24.60;99.90;;;;;;5055771;28;20191;-86
2022/09/05 09:07:57;;;;;;;0.80;0.80;;;24.90;99.90;;;;;;5055877;28;20199;-87
2022/09/05 09:10:35;;;;;;;0.70;0.70;;;24.90;99.90;;;;;;5055589;28;20222;-88
2022/09/05 09:13:19;;;;;;;0.95;0.70;;;25.10;99.90;;;;;;5055557;28;20229;-87
2022/09/05 09:15:54;;;;;;;1.08;0.80;;;25.30;99.90;;;;;;5055809;28;20198;-88
2022/09/05 09:18:25;;;;;;;0.60;0.60;;;25.40;99.90;;;;;;5055661;28;20213;-87
2022/09/05 09:20:56;;;;;;;1.60;0.80;;;25.50;99.90;;;;;;5055511;28;20194;-87
2022/09/05 09:23:43;;;;;;;0.70;0.70;;;25.90;99.90;;;;;;5055479;28;20245;-87
2022/09/05 09:26:15;;;;;;;1.00;0.93;;;26.10;99.90;;;;;;5055202;28;20241;-87
2022/09/05 09:28:47;;;;;;;1.10;1.00;;;26.00;99.90;;;;;;5055909;28;20206;-87
2022/09/05 09:31:27;;;;;;;0.73;0.73;;;26.30;99.90;;;;;;5055928;28;20222;-85
2022/09/05 09:34:05;;;;;;;0.70;0.70;;;26.30;99.90;;;;;;5054871;28;20714;-87
2022/09/05 09:36:53;;;;;;;0.80;0.80;;;26.30;99.90;;;;;;5055127;28;20217;-86
2022/09/05 09:39:31;;;;;;;1.10;0.70;;;26.40;99.90;;;;;;5054860;28;20661;-86
2022/09/05 09:42:14;;;;;;;0.82;0.70;;;26.40;99.90;;;;;;5055116;28;20230;-87
2022/09/05 09:45:07;;;;;;;0.70;0.70;;;26.40;99.90;;;;;;5055133;28;20289;-87
2022/09/05 09:47:59;;;;;;;0.60;0.60;;;26.60;99.90;;;;;;5054988;28;20202;-88
2022/09/05 09:50:44;;;;;;;1.08;0.82;;;26.70;99.90;;;;;;5053766;28;20254;-87
2022/09/05 09:53:32;;;;;;;0.70;0.70;;;26.70;99.90;;;;;;5054868;28;20230;-87
2022/09/05 09:56:47;;;;;;;0.77;0.60;;;26.60;99.90;;;;;;5054852;28;20269;-87
2022/09/05 09:59:28;;;;;;;0.68;0.68;;;26.50;99.90;;;;;;5054317;28;20701;-86
2022/09/05 10:02:20;;;;;;;0.60;0.60;;;26.70;99.90;;;;;;5054625;28;20284;-87
2022/09/05 10:05:09;;;;;;;0.70;0.60;;;26.60;99.90;;;;;;5054603;28;20195;-87
2022/09/05 10:08:05;;;;;;;0.55;0.55;;;26.70;99.90;;;;;;5054445;28;20205;-88
2022/09/05 10:11:03;;;;;;;0.70;0.70;;;26.60;99.90;;;;;;5054334;28;20229;-87
2022/09/05 10:13:58;;;;;;;0.70;0.70;;;26.70;99.90;;;;;;5054366;28;20222;-87
2022/09/05 10:17:02;;;;;;;1.27;0.70;;;26.80;99.90;;;;;;5054427;28;20187;-88
2022/09/05 10:19:56;;;;;;;0.63;0.50;;;26.90;99.90;;;;;;5054699;28;20194;-87
2022/09/05 10:22:43;;;;;;;0.50;0.50;;;27.10;99.90;;;;;;5054640;28;20229;-86
2022/09/05 10:25:26;;;;;;;0.70;0.70;;;27.10;99.90;;;;;;5054120;28;20187;-86
2022/09/05 10:28:05;;;;;;;0.90;0.68;;;27.20;99.90;;;;;;5053816;28;20594;-87
2022/09/05 10:30:45;;;;;;;0.50;0.50;;;27.20;99.90;;;;;;5053970;28;20215;-86
2022/09/05 10:33:28;;;;;;;0.60;0.60;;;27.20;99.90;;;;;;5053705;28;20222;-87
2022/09/05 10:36:01;;;;;;;1.48;0.95;;;27.30;99.90;;;;;;5053894;28;20237;-87
2022/09/05 10:38:37;;;;;;;0.60;0.60;;;27.20;99.90;;;;;;5053915;28;20244;-86
2022/09/05 10:41:09;;;;;;;1.55;0.70;;;27.50;99.90;;;;;;5053859;28;20186;-86
2022/09/05 10:43:45;;;;;;;0.60;0.60;;;27.70;99.50;;;;;;5053710;28;20661;-87
2022/09/05 10:46:25;;;;;;;0.75;0.75;;;27.80;98.20;;;;;;5053449;28;20634;-87
2022/09/05 10:48:53;;;;;;;1.05;0.70;;;27.90;98.60;;;;;;5053573;28;20187;-86
2022/09/05 10:51:28;;;;;;;0.98;0.70;;;28.10;97.10;;;;;;5053402;28;20717;-86
2022/09/05 10:54:10;;;;;;;1.00;0.50;;;28.30;98.00;;;;;;5053535;28;20627;-79
2022/09/05 10:56:43;;;;;;;1.33;0.60;;;28.60;97.50;;;;;;5053475;28;20214;-79
2022/09/05 10:59:19;;;;;;;0.95;0.80;;;28.90;95.80;;;;;;5053390;28;20199;-79
2022/09/05 11:01:58;;;;;;;0.68;0.68;;;29.20;95.70;;;;;;5053311;28;20190;-78
2022/09/05 11:04:43;;;;;;;0.50;0.45;;;29.30;93.80;;;;;;5053335;28;20191;-78
2022/09/05 11:07:14;;;;;;;0.68;0.60;;;29.30;94.60;;;;;;5053351;28;20232;-78
2022/09/05 11:10:02;;;;;;;0.80;0.70;;;29.10;92.50;;;;;;5053137;28;20630;-78
2022/09/05 11:13:00;;;;;;;0.70;0.70;;;28.80;91.40;;;;;;5053020;28;20222;-78
2022/09/05 11:15:33;;;;;;;0.70;0.60;;;28.40;91.50;;;;;;5053283;28;20190;-78
2022/09/05 11:18:07;;;;;;;1.15;0.80;;;28.20;92.10;;;;;;5053317;28;20186;-78
2022/09/05 11:20:58;;;;;;;0.60;0.60;;;28.00;92.30;;;;;;5053602;28;20562;-78
2022/09/05 11:23:32;;;;;;;0.80;0.80;;;28.00;93.50;;;;;;5052795;28;20754;-78
2022/09/05 11:26:04;;;;;;;0.60;0.60;;;27.90;92.40;;;;;;5053108;28;20241;-77
2022/09/05 11:28:38;;;;;;;0.85;0.85;;;27.70;92.00;;;;;;5053146;28;20198;-77
2022/09/05 11:31:12;;;;;;;0.50;0.50;;;27.50;92.80;;;;;;5053005;28;20563;-77
2022/09/05 11:34:14;;;;;;;0.60;0.60;;;27.30;92.90;;;;;;5053100;28;20237;-77
2022/09/05 11:36:48;;;;;;;0.60;0.60;;;27.10;93.00;;;;;;5050068;28;20202;-77
2022/09/05 11:39:58;;;;;;;0.60;0.60;;;27.10;92.90;;;;;;5052791;28;20191;-77
2022/09/05 11:42:56;;;;;;;0.60;0.60;;;26.90;93.60;;;;;;5046127;28;20233;-77
2022/09/05 11:46:03;;;;;;;0.70;0.50;;;26.60;92.60;;;;;;5019103;28;20210;-77
2022/09/05 11:49:08;;;;;;;1.58;0.60;;;26.50;94.50;;;;;;5044152;28;20457;-77
2022/09/05 11:52:21;;;;;;;0.60;0.60;;;26.30;95.80;;;;;;5049994;28;20581;-77
2022/09/05 11:55:18;;;;;;;0.70;0.70;;;26.10;96.30;;;;;;5052695;28;20179;-77
2022/09/05 11:57:55;;;;;;;0.60;0.60;;;26.00;97.30;;;;;;5053077;28;20242;-87
2022/09/05 12:00:25;;;;;;;0.80;0.80;;;25.80;98.20;;;;;;5053229;28;20183;-77
2022/09/05 12:03:36;;;;;;;0.73;0.60;;;25.70;99.90;;;;;;5052820;28;20226;-77
2022/09/05 12:06:47;;;;;;;0.70;0.68;;;25.60;99.90;;;;;;5038013;28;20301;-77
2022/09/05 12:09:28;;;;;;;0.88;0.63;;;25.50;99.40;;;;;;4991411;28;20252;-81
2022/09/05 12:12:11;;;;;;;0.70;0.70;;;25.40;99.90;;;;;;4992096;28;20244;-89
2022/09/05 12:14:45;;;;;;;1.13;0.60;;;25.20;99.90;;;;;;5035136;28;20661;-89
2022/09/05 12:17:25;;;;;;;0.60;0.60;;;25.10;99.90;;;;;;5057041;28;20278;-88
2022/09/05 12:19:58;;;;;;;1.73;0.60;;;24.90;99.90;;;;;;5056720;28;20638;-88
2022/09/05 12:22:29;;;;;;;0.85;0.80;;;24.80;99.90;;;;;;5056932;28;20226;-87
2022/09/05 12:25:17;;;;;;;0.57;0.55;;;24.80;99.90;;;;;;5056827;28;20192;-88
2022/09/05 12:27:47;;;;;;;0.60;0.50;;;24.70;99.90;;;;;;5056315;28;20231;-88
2022/09/05 12:30:25;;;;;;;1.15;0.82;;;24.70;99.90;;;;;;5056314;28;20226;-88
2022/09/05 12:32:55;;;;;;;0.85;0.70;;;24.70;99.90;;;;;;5056623;28;20642;-88
2022/09/05 12:35:30;;;;;;;1.15;0.65;;;24.80;99.90;;;;;;5056938;28;20218;-88
2022/09/05 12:38:02;;;;;;;0.98;0.60;;;24.90;99.90;;;;;;5055817;28;20191;-78
2022/09/05 12:40:37;;;;;;;0.70;0.57;;;24.90;99.90;;;;;;5056044;28;20183;-81
2022/09/05 12:43:06;;;;;;;0.70;0.70;;;24.90;99.90;;;;;;5055856;28;20226;-81
2022/09/05 12:45:41;;;;;;;0.82;0.70;;;24.90;99.90;;;;;;5055529;28;20693;-79
2022/09/05 12:48:12;;;;;;;0.80;0.80;;;24.90;99.90;;;;;;5055519;28;20658;-79
2022/09/05 12:50:47;;;;;;;2.38;0.95;;;24.90;99.90;;;;;;5055742;28;20257;-79
2022/09/05 12:53:18;;;;;;;0.77;0.50;;;25.10;99.70;;;;;;5056093;28;20579;-79
2022/09/05 12:55:51;;;;;;;0.80;0.70;;;25.20;99.90;;;;;;5055684;28;20187;-79
2022/09/05 12:58:22;;;;;;;0.60;0.60;;;25.10;99.60;;;;;;5055854;28;20209;-78
2022/09/05 13:00:50;;;;;;;3.00;0.90;;;25.20;99.40;;;;;;5055606;28;20282;-78
2022/09/05 13:03:29;;;;;;;0.70;0.70;;;25.30;98.20;;;;;;5055448;28;20223;-79
2022/09/05 13:06:05;;;;;;;0.52;0.52;;;25.50;97.80;;;;;;5055208;28;20626;-79
2022/09/05 13:08:42;;;;;;;0.77;0.57;;;25.50;97.70;;;;;;5055433;28;20269;-79
2022/09/05 13:11:12;;;;;;;0.55;0.50;;;25.40;98.00;;;;;;5055531;28;20226;-78
2022/09/05 13:13:46;;;;;;;0.95;0.70;;;25.50;96.90;;;;;;5054964;28;20229;-80
2022/09/05 13:16:19;;;;;;;0.65;0.65;;;25.60;96.70;;;;;;5055039;28;20692;-81
2022/09/05 13:18:46;;;;;;;0.55;0.50;;;25.60;97.40;;;;;;5054982;28;20273;-81
2022/09/05 13:21:19;;;;;;;0.88;0.68;;;25.60;96.90;;;;;;5055221;28;20206;-81
2022/09/05 13:23:53;;;;;;;0.60;0.60;;;25.60;97.10;;;;;;5054899;28;20214;-79
2022/09/05 13:26:27;;;;;;;1.67;0.98;;;25.60;97.50;;;;;;5053894;28;20234;-79
2022/09/05 13:28:57;;;;;;;0.77;0.77;;;25.40;97.30;;;;;;5054740;28;20194;-81
2022/09/05 13:32:01;;;;;;;1.13;0.90;;;25.30;97.80;;;;;;5054593;28;20678;-81
2022/09/05 13:34:30;;;;;;;0.68;0.68;;;25.20;98.40;;;;;;5054618;28;20203;-80
2022/09/05 13:37:02;;;;;;;0.70;0.65;;;25.10;98.00;;;;;;5054919;28;20206;-79
2022/09/05 13:39:40;;;;;;;0.70;0.70;;;25.20;97.90;;;;;;5054564;28;20188;-82
2022/09/05 13:42:17;;;;;;;0.50;0.50;;;25.20;97.20;;;;;;5054513;28;20227;-81
2022/09/05 13:44:45;;;;;;;0.50;0.50;;;25.20;97.00;;;;;;5055090;28;20214;-79
2022/09/05 13:47:23;;;;;;;0.60;0.60;;;25.30;96.80;;;;;;5054652;28;20238;-79
2022/09/05 13:50:01;;;;;;;0.82;0.63;;;25.20;97.60;;;;;;5055065;28;20209;-87
2022/09/05 13:52:33;;;;;;;0.88;0.50;;;25.10;98.10;;;;;;5054819;28;20674;-88
2022/09/05 13:55:11;;;;;;;0.70;0.70;;;25.10;99.00;;;;;;5054908;28;20289;-88